Time;durP1;ratioP1;P1;durP2;ratioP2;P2;SDS_P1;SDS_P2;PMS_P1;PMS_P2;Temp;Humidity;BMP_temperature;BMP_pressure;BME280_temperature;BME280_humidity;BME280_pressure;Samples;Min_cycle;Max_cycle;Signal;HPM_P1;HPM_P2
2023/01/20 00:01:20;;;;;;;12.90;9.27;;;;;;;;;;4992061;28;20763;-66
2023/01/20 00:03:46;;;;;;;10.17;7.90;;;;;;;;;;4991868;28;20308;-66
2023/01/20 00:06:12;;;;;;;10.27;7.83;;;;;;;;;;4990993;28;20283;-65
2023/01/20 00:08:37;;;;;;;10.20;7.97;;;;;;;;;;4992428;28;20685;-66
2023/01/20 00:11:03;;;;;;;9.40;7.20;;;;;;;;;;4991318;28;20220;-66
2023/01/20 00:13:29;;;;;;;9.10;7.10;;;;;;;;;;4992423;28;20214;-66
2023/01/20 00:15:54;;;;;;;7.90;5.83;;;;;;;;;;4975036;28;20217;-66
2023/01/20 00:18:19;;;;;;;6.77;5.50;;;;;;;;;;4989948;28;20240;-66
2023/01/20 00:20:44;;;;;;;7.00;4.70;;;;;;;;;;5005125;28;20347;-66
2023/01/20 00:23:10;;;;;;;6.60;4.40;;;;;;;;;;5015083;28;20213;-65
2023/01/20 00:25:35;;;;;;;7.13;4.80;;;;;;;;;;5015023;28;20215;-66
2023/01/20 00:28:01;;;;;;;6.43;4.70;;;;;;;;;;5014905;28;20220;-65
2023/01/20 00:30:26;;;;;;;8.23;5.73;;;;;;;;;;5015166;28;20209;-66
2023/01/20 00:32:51;;;;;;;9.10;6.70;;;;;;;;;;5014700;28;20224;-66
2023/01/20 00:35:17;;;;;;;9.27;6.73;;;;;;;;;;5006921;28;20255;-66
2023/01/20 00:37:42;;;;;;;8.97;7.23;;;;;;;;;;4995767;28;20244;-66
2023/01/20 00:40:08;;;;;;;9.67;7.37;;;;;;;;;;4994862;28;20251;-65
2023/01/20 00:42:33;;;;;;;9.53;7.60;;;;;;;;;;4995382;28;20308;-66
2023/01/20 00:44:58;;;;;;;11.63;8.60;;;;;;;;;;5015274;28;20236;-66
2023/01/20 00:47:23;;;;;;;12.00;8.73;;;;;;;;;;5013677;28;20701;-66
2023/01/20 00:49:49;;;;;;;11.07;9.07;;;;;;;;;;4996178;28;20233;-66
2023/01/20 00:52:14;;;;;;;11.90;9.67;;;;;;;;;;5013553;28;20219;-66
2023/01/20 00:54:39;;;;;;;12.80;10.47;;;;;;;;;;5014460;28;20212;-66
2023/01/20 00:57:05;;;;;;;15.60;11.47;;;;;;;;;;5014260;28;20212;-65
2023/01/20 00:59:30;;;;;;;14.57;10.50;;;;;;;;;;5014745;28;20220;-66
2023/01/20 01:01:55;;;;;;;15.53;11.93;;;;;;;;;;5014296;28;20807;-66
2023/01/20 01:04:21;;;;;;;16.13;12.17;;;;;;;;;;5014390;28;20245;-66
2023/01/20 01:06:46;;;;;;;13.73;11.33;;;;;;;;;;5003257;28;20237;-66
2023/01/20 01:09:11;;;;;;;16.97;13.07;;;;;;;;;;4977143;28;20590;-66
2023/01/20 01:11:36;;;;;;;15.37;12.00;;;;;;;;;;4995296;28;20669;-66
2023/01/20 01:14:02;;;;;;;14.13;11.80;;;;;;;;;;4993888;28;20221;-65
2023/01/20 01:16:27;;;;;;;15.30;12.00;;;;;;;;;;4994897;28;20234;-66
2023/01/20 01:18:53;;;;;;;17.90;12.10;;;;;;;;;;4995051;28;20252;-66
2023/01/20 01:21:19;;;;;;;14.97;12.27;;;;;;;;;;4976665;28;20213;-66
2023/01/20 01:23:44;;;;;;;16.67;13.10;;;;;;;;;;4994890;28;20224;-66
2023/01/20 01:26:10;;;;;;;15.27;11.70;;;;;;;;;;4994602;28;20604;-67
2023/01/20 01:28:35;;;;;;;14.30;11.80;;;;;;;;;;4993992;28;20217;-67
2023/01/20 01:31:01;;;;;;;15.20;12.23;;;;;;;;;;4994326;28;20650;-65
2023/01/20 01:33:26;;;;;;;16.03;12.70;;;;;;;;;;4994345;28;20292;-66
2023/01/20 01:35:53;;;;;;;16.97;12.87;;;;;;;;;;5001781;28;20223;-66
2023/01/20 01:38:19;;;;;;;16.83;12.87;;;;;;;;;;5013603;28;20208;-66
2023/01/20 01:40:47;;;;;;;18.17;13.20;;;;;;;;;;5011815;28;20216;-66
2023/01/20 01:43:18;;;;;;;17.60;13.40;;;;;;;;;;4993221;28;20684;-66
2023/01/20 01:45:43;;;;;;;17.00;12.67;;;;;;;;;;4977142;28;20217;-66
2023/01/20 01:48:09;;;;;;;17.33;12.67;;;;;;;;;;4993683;28;20232;-64
2023/01/20 01:50:45;;;;;;;16.60;13.33;;;;;;;;;;4989093;28;20229;-66
2023/01/20 01:53:11;;;;;;;16.97;13.00;;;;;;;;;;4982542;28;20243;-66
2023/01/20 01:55:38;;;;;;;16.27;13.00;;;;;;;;;;4962914;28;20929;-66
2023/01/20 01:58:03;;;;;;;16.03;12.70;;;;;;;;;;4973923;28;20612;-66
2023/01/20 02:00:29;;;;;;;14.87;12.03;;;;;;;;;;4978151;28;20228;-66
2023/01/20 02:02:54;;;;;;;16.10;13.00;;;;;;;;;;4983665;28;20214;-66
2023/01/20 02:05:19;;;;;;;16.73;12.57;;;;;;;;;;4986475;28;20609;-66
2023/01/20 02:07:45;;;;;;;16.83;13.37;;;;;;;;;;4993474;28;20271;-66
2023/01/20 02:10:10;;;;;;;16.40;12.83;;;;;;;;;;5002191;28;20224;-66
2023/01/20 02:12:36;;;;;;;14.93;12.50;;;;;;;;;;5003956;28;20232;-66
2023/01/20 02:15:01;;;;;;;14.37;12.43;;;;;;;;;;5003289;28;20282;-66
2023/01/20 02:17:29;;;;;;;14.30;11.90;;;;;;;;;;4996638;28;20253;-66
2023/01/20 02:19:57;;;;;;;15.03;11.20;;;;;;;;;;4997148;28;20898;-66
2023/01/20 02:22:24;;;;;;;14.37;12.27;;;;;;;;;;5014270;28;20219;-66
2023/01/20 02:25:03;;;;;;;14.33;11.67;;;;;;;;;;5002771;28;20235;-66
2023/01/20 02:27:37;;;;;;;13.30;11.17;;;;;;;;;;5004805;28;20566;-66
2023/01/20 02:30:02;;;;;;;12.70;10.70;;;;;;;;;;5004651;28;20231;-65
2023/01/20 02:32:43;;;;;;;13.90;11.43;;;;;;;;;;5022401;28;20579;-66
2023/01/20 02:35:10;;;;;;;14.47;10.90;;;;;;;;;;5002824;28;20204;-66
2023/01/20 02:37:40;;;;;;;15.43;11.97;;;;;;;;;;4986095;28;20204;-66
2023/01/20 02:40:05;;;;;;;13.73;11.30;;;;;;;;;;4995332;28;20644;-66
2023/01/20 02:42:36;;;;;;;15.57;11.97;;;;;;;;;;4995512;28;20772;-66
2023/01/20 02:45:11;;;;;;;13.63;11.50;;;;;;;;;;4995115;28;20214;-66
2023/01/20 02:47:40;;;;;;;14.20;11.77;;;;;;;;;;5004546;28;20234;-66
2023/01/20 02:50:05;;;;;;;14.40;10.70;;;;;;;;;;5003420;28;20262;-66
2023/01/20 02:52:31;;;;;;;13.83;10.57;;;;;;;;;;5007117;28;20252;-66
2023/01/20 02:54:58;;;;;;;12.93;10.37;;;;;;;;;;4996506;28;20216;-66
2023/01/20 02:57:25;;;;;;;13.97;10.50;;;;;;;;;;4975628;28;20219;-66
2023/01/20 02:59:51;;;;;;;13.50;10.33;;;;;;;;;;4992343;28;20252;-66
2023/01/20 03:02:17;;;;;;;11.87;9.57;;;;;;;;;;4991475;28;20224;-66
2023/01/20 03:04:44;;;;;;;14.37;10.70;;;;;;;;;;4989400;28;20542;-66
2023/01/20 03:07:10;;;;;;;13.23;10.43;;;;;;;;;;5025185;28;20235;-66
2023/01/20 03:09:36;;;;;;;12.67;10.17;;;;;;;;;;5032137;28;20743;-66
2023/01/20 03:12:05;;;;;;;12.10;10.13;;;;;;;;;;5014306;28;20266;-65
2023/01/20 03:14:30;;;;;;;14.30;10.83;;;;;;;;;;5031727;28;20219;-66
2023/01/20 03:16:56;;;;;;;16.07;11.23;;;;;;;;;;5032288;28;20216;-66
2023/01/20 03:19:21;;;;;;;14.03;10.97;;;;;;;;;;5031781;28;20208;-66
2023/01/20 03:21:46;;;;;;;14.20;11.43;;;;;;;;;;5014034;28;20216;-66
2023/01/20 03:24:11;;;;;;;14.97;11.93;;;;;;;;;;5014029;28;20342;-66
2023/01/20 03:26:37;;;;;;;15.20;11.40;;;;;;;;;;5032137;28;20682;-66
2023/01/20 03:29:04;;;;;;;15.47;11.30;;;;;;;;;;5016042;28;20228;-65
2023/01/20 03:31:30;;;;;;;13.80;11.73;;;;;;;;;;4994957;28;20208;-66
2023/01/20 03:33:56;;;;;;;17.07;12.47;;;;;;;;;;5012382;28;20220;-66
2023/01/20 03:36:22;;;;;;;15.33;12.60;;;;;;;;;;5010454;28;20211;-66
2023/01/20 03:38:47;;;;;;;16.37;12.90;;;;;;;;;;4993613;28;20589;-66
2023/01/20 03:41:12;;;;;;;18.00;13.30;;;;;;;;;;5001737;28;20219;-66
2023/01/20 03:43:43;;;;;;;16.50;13.43;;;;;;;;;;5002361;28;20243;-66
2023/01/20 03:46:13;;;;;;;17.20;13.40;;;;;;;;;;5000601;28;20212;-66
2023/01/20 03:48:41;;;;;;;16.83;12.93;;;;;;;;;;4995978;28;20338;-66
2023/01/20 03:51:06;;;;;;;18.63;12.47;;;;;;;;;;5004391;28;20216;-66
2023/01/20 03:53:40;;;;;;;15.97;12.80;;;;;;;;;;4977269;28;20228;-67
2023/01/20 03:56:09;;;;;;;16.83;12.83;;;;;;;;;;5001709;28;20573;-66
2023/01/20 03:58:36;;;;;;;15.60;11.83;;;;;;;;;;5003729;28;20223;-67
2023/01/20 04:01:03;;;;;;;18.63;13.70;;;;;;;;;;5007258;28;20693;-65
2023/01/20 04:03:30;;;;;;;17.40;13.40;;;;;;;;;;5024992;28;20690;-66
2023/01/20 04:05:56;;;;;;;19.70;14.83;;;;;;;;;;5012617;28;20230;-66
2023/01/20 04:08:21;;;;;;;18.33;13.83;;;;;;;;;;5024015;28;20264;-66
2023/01/20 04:10:47;;;;;;;20.80;15.40;;;;;;;;;;5016769;28;20255;-66
2023/01/20 04:13:12;;;;;;;18.37;14.83;;;;;;;;;;4994965;28;20216;-66
2023/01/20 04:15:39;;;;;;;21.77;16.20;;;;;;;;;;4997143;28;20312;-66
2023/01/20 04:18:11;;;;;;;19.73;14.10;;;;;;;;;;5002837;28;20216;-66
2023/01/20 04:20:36;;;;;;;21.57;15.23;;;;;;;;;;5006130;28;20593;-66
2023/01/20 04:23:02;;;;;;;22.50;16.20;;;;;;;;;;5005560;28;20225;-66
2023/01/20 04:25:28;;;;;;;20.87;15.30;;;;;;;;;;5005428;28;20239;-66
2023/01/20 04:27:53;;;;;;;21.97;15.93;;;;;;;;;;5005210;28;20600;-66
2023/01/20 04:30:18;;;;;;;22.80;16.27;;;;;;;;;;5005503;28;20221;-66
2023/01/20 04:32:44;;;;;;;21.57;15.67;;;;;;;;;;5001626;28;20255;-66
2023/01/20 04:35:11;;;;;;;23.13;16.13;;;;;;;;;;4997705;28;20235;-66
2023/01/20 04:37:36;;;;;;;22.13;16.00;;;;;;;;;;4995747;28;20224;-66
2023/01/20 04:40:02;;;;;;;24.30;17.00;;;;;;;;;;5015727;28;20220;-66
2023/01/20 04:42:27;;;;;;;23.87;16.80;;;;;;;;;;5031092;28;20204;-66
2023/01/20 04:44:52;;;;;;;24.20;17.20;;;;;;;;;;5034404;28;20286;-66
2023/01/20 04:47:18;;;;;;;24.20;17.53;;;;;;;;;;5034538;28;20262;-66
2023/01/20 04:49:43;;;;;;;24.23;16.93;;;;;;;;;;5034930;28;20269;-66
2023/01/20 04:52:08;;;;;;;27.03;18.17;;;;;;;;;;5005372;28;20234;-67
2023/01/20 04:54:33;;;;;;;27.03;18.47;;;;;;;;;;5005321;28;20680;-67
2023/01/20 04:56:59;;;;;;;28.00;18.40;;;;;;;;;;5005123;28;20223;-67
2023/01/20 04:59:24;;;;;;;29.53;18.17;;;;;;;;;;5003734;28;20303;-67
2023/01/20 05:01:49;;;;;;;26.03;18.03;;;;;;;;;;5005299;28;20217;-67
2023/01/20 05:04:15;;;;;;;26.23;17.73;;;;;;;;;;5004635;28;20603;-67
2023/01/20 05:06:42;;;;;;;26.50;17.93;;;;;;;;;;5004397;28;20239;-67
2023/01/20 05:09:09;;;;;;;25.87;18.53;;;;;;;;;;4996605;28;20231;-67
2023/01/20 05:11:35;;;;;;;26.83;18.00;;;;;;;;;;4997742;28;20220;-63
2023/01/20 05:14:00;;;;;;;26.87;18.60;;;;;;;;;;5013360;28;20710;-64
2023/01/20 05:16:30;;;;;;;26.67;17.17;;;;;;;;;;5003431;28;20623;-63
2023/01/20 05:18:55;;;;;;;26.37;17.33;;;;;;;;;;5004853;28;20248;-63
2023/01/20 05:21:21;;;;;;;24.07;16.03;;;;;;;;;;5014746;28;20251;-63
2023/01/20 05:23:46;;;;;;;24.50;16.23;;;;;;;;;;5024320;28;20216;-63
2023/01/20 05:26:11;;;;;;;24.80;17.23;;;;;;;;;;5023267;28;20228;-63
2023/01/20 05:28:37;;;;;;;24.57;17.50;;;;;;;;;;5023382;28;20220;-63
2023/01/20 05:31:02;;;;;;;24.13;16.30;;;;;;;;;;5001499;28;20223;-62
2023/01/20 05:33:27;;;;;;;23.67;16.20;;;;;;;;;;5015867;28;20245;-63
2023/01/20 05:35:53;;;;;;;22.03;15.60;;;;;;;;;;5002638;28;20815;-63
2023/01/20 05:38:18;;;;;;;23.57;16.30;;;;;;;;;;5001101;28;20221;-63
2023/01/20 05:40:43;;;;;;;24.20;16.67;;;;;;;;;;5004132;28;20247;-63
2023/01/20 05:43:08;;;;;;;23.80;15.77;;;;;;;;;;5003246;28;20295;-63
2023/01/20 05:45:34;;;;;;;23.23;15.70;;;;;;;;;;5004376;28;20239;-63
2023/01/20 05:47:59;;;;;;;23.40;14.87;;;;;;;;;;4986076;28;20231;-63
2023/01/20 05:50:25;;;;;;;23.07;15.43;;;;;;;;;;5004193;28;20617;-63
2023/01/20 05:52:50;;;;;;;20.23;14.73;;;;;;;;;;5002189;28;20283;-63
2023/01/20 05:55:15;;;;;;;22.30;15.30;;;;;;;;;;4994798;28;20224;-63
2023/01/20 05:57:41;;;;;;;22.93;15.87;;;;;;;;;;4996392;28;20247;-63
2023/01/20 06:00:06;;;;;;;23.20;16.00;;;;;;;;;;4997613;28;20221;-63
2023/01/20 06:02:32;;;;;;;22.63;15.40;;;;;;;;;;5003326;28;20298;-63
2023/01/20 06:05:00;;;;;;;20.63;15.03;;;;;;;;;;5004331;28;20586;-63
2023/01/20 06:07:26;;;;;;;21.63;14.93;;;;;;;;;;5003543;28;21210;-63
2023/01/20 06:09:51;;;;;;;20.80;14.30;;;;;;;;;;4985685;28;20324;-63
2023/01/20 06:12:16;;;;;;;20.17;13.80;;;;;;;;;;5003120;28;20588;-63
2023/01/20 06:14:42;;;;;;;18.47;13.33;;;;;;;;;;5003587;28;20739;-63
2023/01/20 06:17:07;;;;;;;22.37;14.33;;;;;;;;;;5006042;28;20208;-63
2023/01/20 06:19:32;;;;;;;19.57;13.77;;;;;;;;;;4995415;28;20245;-63
2023/01/20 06:21:57;;;;;;;20.13;13.83;;;;;;;;;;4995797;28;20250;-63
2023/01/20 06:24:23;;;;;;;18.40;12.27;;;;;;;;;;5003826;28;20250;-63
2023/01/20 06:26:50;;;;;;;19.90;13.30;;;;;;;;;;5031254;28;20298;-64
2023/01/20 06:29:15;;;;;;;19.50;13.10;;;;;;;;;;5032122;28;20219;-63
2023/01/20 06:31:40;;;;;;;18.13;13.43;;;;;;;;;;5032005;28;20619;-63
2023/01/20 06:34:05;;;;;;;19.13;12.37;;;;;;;;;;5024659;28;20261;-63
2023/01/20 06:36:31;;;;;;;18.03;12.60;;;;;;;;;;5023674;28;20216;-64
2023/01/20 06:38:56;;;;;;;19.83;15.63;;;;;;;;;;5016453;28;20423;-62
2023/01/20 06:41:21;;;;;;;19.40;13.90;;;;;;;;;;5021440;28;20647;-63
2023/01/20 06:43:48;;;;;;;20.73;13.73;;;;;;;;;;5023430;28;20212;-62
2023/01/20 06:46:14;;;;;;;19.92;15.93;;;;;;;;;;5019137;28;20481;-62
2023/01/20 06:48:40;;;;;;;21.27;14.10;;;;;;;;;;5019767;28;20228;-62
2023/01/20 06:51:06;;;;;;;19.83;13.87;;;;;;;;;;5012455;28;20680;-62
2023/01/20 06:53:31;;;;;;;19.70;13.63;;;;;;;;;;5012013;28;20281;-62
2023/01/20 06:55:57;;;;;;;18.07;12.90;;;;;;;;;;5013167;28;20212;-62
2023/01/20 06:58:23;;;;;;;19.20;12.83;;;;;;;;;;5011270;28;20243;-62
2023/01/20 07:00:49;;;;;;;19.33;13.57;;;;;;;;;;5012908;28;20208;-63
2023/01/20 07:03:14;;;;;;;20.83;14.10;;;;;;;;;;5012039;28;20625;-63
2023/01/20 07:05:39;;;;;;;19.13;13.17;;;;;;;;;;5013391;28;20267;-63
2023/01/20 07:08:05;;;;;;;20.97;13.93;;;;;;;;;;5014122;28;20698;-62
2023/01/20 07:10:30;;;;;;;21.30;13.33;;;;;;;;;;5015122;28;20200;-62
2023/01/20 07:12:55;;;;;;;21.13;14.77;;;;;;;;;;5031702;28;20212;-62
2023/01/20 07:15:20;;;;;;;20.60;14.00;;;;;;;;;;5031757;28;20569;-62
2023/01/20 07:17:46;;;;;;;19.57;13.63;;;;;;;;;;5031132;28;20321;-62
2023/01/20 07:20:11;;;;;;;19.53;13.33;;;;;;;;;;5031444;28;20303;-62
2023/01/20 07:22:36;;;;;;;20.40;13.13;;;;;;;;;;5020191;28;20250;-61
2023/01/20 07:25:02;;;;;;;20.23;13.23;;;;;;;;;;5021781;28;20215;-62
2023/01/20 07:27:27;;;;;;;19.67;13.43;;;;;;;;;;5016129;28;20231;-64
2023/01/20 07:29:53;;;;;;;18.23;12.83;;;;;;;;;;5017001;28;20223;-62
2023/01/20 07:32:19;;;;;;;19.93;13.90;;;;;;;;;;5019556;28;20203;-62
2023/01/20 07:34:44;;;;;;;18.27;13.17;;;;;;;;;;5022786;28;20203;-61
2023/01/20 07:37:09;;;;;;;19.17;13.40;;;;;;;;;;5004842;28;20266;-62
2023/01/20 07:39:35;;;;;;;18.50;12.80;;;;;;;;;;5012653;28;20684;-62
2023/01/20 07:42:00;;;;;;;22.97;14.47;;;;;;;;;;5024414;28;20697;-62
2023/01/20 07:44:25;;;;;;;19.53;14.53;;;;;;;;;;5032085;28;20203;-62
2023/01/20 07:46:51;;;;;;;21.20;14.83;;;;;;;;;;5031778;28;20294;-62
2023/01/20 07:49:16;;;;;;;21.33;14.97;;;;;;;;;;5030429;28;20243;-62
2023/01/20 07:51:42;;;;;;;21.97;15.50;;;;;;;;;;5016375;28;20304;-63
2023/01/20 07:54:09;;;;;;;23.90;18.73;;;;;;;;;;5010798;28;20427;-62
2023/01/20 07:56:34;;;;;;;21.67;15.80;;;;;;;;;;4993833;28;20243;-63
2023/01/20 07:58:59;;;;;;;24.50;17.10;;;;;;;;;;5012162;28;20220;-62
2023/01/20 08:01:26;;;;;;;23.83;16.07;;;;;;;;;;5011308;28;20216;-61
2023/01/20 08:03:51;;;;;;;20.67;14.77;;;;;;;;;;4994032;28;20221;-63
2023/01/20 08:06:17;;;;;;;25.10;15.57;;;;;;;;;;5011468;28;20294;-62
2023/01/20 08:08:43;;;;;;;22.93;15.83;;;;;;;;;;4993635;28;20240;-62
2023/01/20 08:11:09;;;;;;;24.17;15.83;;;;;;;;;;4994322;28;20209;-62
2023/01/20 08:13:34;;;;;;;22.23;15.57;;;;;;;;;;4994740;28;20274;-62
2023/01/20 08:16:00;;;;;;;21.97;15.60;;;;;;;;;;5011109;28;20220;-61
2023/01/20 08:18:25;;;;;;;25.63;16.83;;;;;;;;;;5011128;28;20216;-62
2023/01/20 08:20:51;;;;;;;25.37;17.60;;;;;;;;;;5010840;28;20219;-61
2023/01/20 08:23:16;;;;;;;24.83;17.50;;;;;;;;;;5008987;28;20272;-61
2023/01/20 08:25:41;;;;;;;25.97;17.47;;;;;;;;;;4991509;28;20579;-62
2023/01/20 08:28:07;;;;;;;28.43;18.13;;;;;;;;;;5000968;28;20228;-64
2023/01/20 08:30:32;;;;;;;29.23;19.03;;;;;;;;;;5011300;28;20216;-64
2023/01/20 08:32:57;;;;;;;27.20;18.53;;;;;;;;;;4998865;28;20214;-64
2023/01/20 08:35:23;;;;;;;27.53;19.07;;;;;;;;;;4999765;28;20217;-64
2023/01/20 08:37:48;;;;;;;26.73;18.47;;;;;;;;;;4985502;28;20216;-64
2023/01/20 08:40:14;;;;;;;24.93;17.30;;;;;;;;;;4991831;28;20574;-64
2023/01/20 08:42:39;;;;;;;26.23;18.37;;;;;;;;;;4992853;28;20301;-64
2023/01/20 08:45:05;;;;;;;26.63;18.00;;;;;;;;;;4994657;28;20217;-64
2023/01/20 08:47:30;;;;;;;28.20;18.57;;;;;;;;;;4995509;28;20223;-64
2023/01/20 08:49:56;;;;;;;25.60;18.10;;;;;;;;;;4996099;28;20209;-64
2023/01/20 08:52:21;;;;;;;26.43;17.60;;;;;;;;;;5013923;28;20212;-64
2023/01/20 08:54:46;;;;;;;25.33;17.70;;;;;;;;;;5015028;28;20236;-64
2023/01/20 08:57:13;;;;;;;27.60;17.50;;;;;;;;;;4997208;28;20205;-64
2023/01/20 08:59:39;;;;;;;26.60;17.37;;;;;;;;;;5014237;28;20236;-64
2023/01/20 09:02:04;;;;;;;25.03;17.30;;;;;;;;;;5014796;28;20240;-63
2023/01/20 09:04:29;;;;;;;24.97;17.43;;;;;;;;;;5014972;28;20299;-64
2023/01/20 09:06:55;;;;;;;26.43;17.00;;;;;;;;;;5009676;28;20224;-64
2023/01/20 09:09:21;;;;;;;27.77;18.20;;;;;;;;;;5014503;28;20568;-64
2023/01/20 09:11:53;;;;;;;26.77;17.47;;;;;;;;;;5015155;28;20237;-64
2023/01/20 09:14:19;;;;;;;28.27;18.07;;;;;;;;;;5014512;28;20299;-65
2023/01/20 09:16:44;;;;;;;25.70;16.57;;;;;;;;;;5015000;28;20296;-64
2023/01/20 09:19:09;;;;;;;25.07;17.10;;;;;;;;;;5013155;28;20307;-64
2023/01/20 09:21:35;;;;;;;24.47;16.57;;;;;;;;;;5014787;28;20759;-64
2023/01/20 09:24:00;;;;;;;25.23;16.80;;;;;;;;;;5014356;28;20216;-63
2023/01/20 09:26:25;;;;;;;30.13;17.03;;;;;;;;;;5013916;28;20655;-64
2023/01/20 09:28:51;;;;;;;23.53;16.53;;;;;;;;;;5014575;28;20282;-64
2023/01/20 09:31:17;;;;;;;25.50;16.73;;;;;;;;;;5014169;28;20217;-64
2023/01/20 09:33:42;;;;;;;26.87;17.37;;;;;;;;;;4996152;28;20660;-64
2023/01/20 09:36:08;;;;;;;23.57;16.37;;;;;;;;;;5014048;28;20222;-64
2023/01/20 09:44:20;;;;;;;24.77;16.13;;;;;;;;;;5018682;28;20299;-63
2023/01/20 09:47:19;;;;;;;27.20;16.70;;;;;;;;;;5034033;28;20216;-64
2023/01/20 09:55:27;;;;;;;23.23;16.37;;;;;;;;;;5012327;28;20694;-64
2023/01/20 09:57:58;;;;;;;24.20;16.70;;;;;;;;;;4996537;28;20205;-64
2023/01/20 10:00:23;;;;;;;23.97;16.43;;;;;;;;;;4996274;28;20663;-65
2023/01/20 10:02:50;;;;;;;25.30;16.83;;;;;;;;;;4995721;28;20209;-64
2023/01/20 10:05:16;;;;;;;23.57;15.93;;;;;;;;;;4995343;28;20635;-64
2023/01/20 10:07:45;;;;;;;23.90;15.83;;;;;;;;;;5014424;28;20558;-64
2023/01/20 10:10:16;;;;;;;25.40;17.30;;;;;;;;;;5014501;28;20224;-64
2023/01/20 10:12:44;;;;;;;21.87;15.93;;;;;;;;;;5033481;28;20219;-64
2023/01/20 10:15:11;;;;;;;26.70;17.90;;;;;;;;;;5032583;28;20215;-64
2023/01/20 10:17:55;;;;;;;23.87;16.43;;;;;;;;;;5015911;28;20212;-64
2023/01/20 10:20:24;;;;;;;23.47;16.43;;;;;;;;;;5032528;28;27002;-64
2023/01/20 10:23:22;;;;;;;22.90;16.53;;;;;;;;;;5014951;28;20295;-64
2023/01/20 10:25:48;;;;;;;22.87;16.13;;;;;;;;;;5030164;28;20216;-64
2023/01/20 10:28:14;;;;;;;22.80;16.47;;;;;;;;;;5032451;28;20322;-64
2023/01/20 10:30:40;;;;;;;23.97;16.87;;;;;;;;;;5032471;28;20254;-64
2023/01/20 10:33:09;;;;;;;21.53;15.13;;;;;;;;;;5032588;28;20247;-64
2023/01/20 10:35:36;;;;;;;24.07;16.23;;;;;;;;;;5032931;28;20210;-64
2023/01/20 10:38:02;;;;;;;21.77;15.80;;;;;;;;;;5003468;28;20213;-64
2023/01/20 10:40:28;;;;;;;20.40;15.77;;;;;;;;;;4996005;28;20223;-64
2023/01/20 10:42:55;;;;;;;22.93;15.83;;;;;;;;;;5032743;28;20310;-64
2023/01/20 10:45:39;;;;;;;21.70;16.07;;;;;;;;;;5014213;28;20219;-64
2023/01/20 10:48:08;;;;;;;21.10;15.37;;;;;;;;;;5032156;28;20233;-64
2023/01/20 10:50:43;;;;;;;21.67;16.27;;;;;;;;;;5008822;28;20228;-64
2023/01/20 10:53:09;;;;;;;21.60;15.87;;;;;;;;;;4995135;28;20208;-64
2023/01/20 10:55:53;;;;;;;19.60;15.67;;;;;;;;;;5013207;28;20211;-64
2023/01/20 10:58:18;;;;;;;19.40;14.90;;;;;;;;;;5011487;28;20282;-64
2023/01/20 11:00:43;;;;;;;19.90;14.57;;;;;;;;;;5013003;28;20270;-64
2023/01/20 11:03:11;;;;;;;21.00;14.40;;;;;;;;;;4994981;28;20216;-64
2023/01/20 11:05:37;;;;;;;19.13;14.30;;;;;;;;;;4995189;28;20316;-64
2023/01/20 11:08:02;;;;;;;18.90;14.40;;;;;;;;;;5011280;28;20311;-63
2023/01/20 11:10:28;;;;;;;20.23;15.27;;;;;;;;;;5011660;28;20729;-64
2023/01/20 11:12:55;;;;;;;22.07;15.27;;;;;;;;;;5010748;28;20247;-64
2023/01/20 11:15:22;;;;;;;18.67;14.70;;;;;;;;;;5011618;28;20250;-64
2023/01/20 11:18:07;;;;;;;19.47;14.23;;;;;;;;;;5012711;28;20219;-64
2023/01/20 11:20:33;;;;;;;18.63;14.30;;;;;;;;;;5011297;28;20216;-64
2023/01/20 11:22:58;;;;;;;19.10;14.73;;;;;;;;;;5011508;28;20212;-64
2023/01/20 11:25:25;;;;;;;19.10;14.33;;;;;;;;;;5012538;28;20215;-64
2023/01/20 11:27:50;;;;;;;18.47;14.53;;;;;;;;;;5011796;28;20220;-64
2023/01/20 11:30:21;;;;;;;20.00;13.90;;;;;;;;;;5012223;28;20212;-64
2023/01/20 11:32:46;;;;;;;17.97;14.10;;;;;;;;;;5011592;28;20217;-64
2023/01/20 11:35:22;;;;;;;17.20;13.57;;;;;;;;;;5011045;28;20219;-64
2023/01/20 11:37:47;;;;;;;17.87;13.27;;;;;;;;;;5003564;28;20244;-65
2023/01/20 11:40:18;;;;;;;17.20;12.43;;;;;;;;;;4990707;28;20256;-65
2023/01/20 11:42:45;;;;;;;17.13;13.87;;;;;;;;;;5011524;28;20224;-65
2023/01/20 11:45:24;;;;;;;15.17;12.23;;;;;;;;;;5011964;28;20246;-64
2023/01/20 11:48:05;;;;;;;16.43;13.20;;;;;;;;;;5011617;28;20220;-64
2023/01/20 11:50:32;;;;;;;18.13;13.90;;;;;;;;;;5007136;28;20239;-64
2023/01/20 11:53:11;;;;;;;15.53;13.20;;;;;;;;;;4999169;28;20266;-64
2023/01/20 11:55:41;;;;;;;15.23;12.00;;;;;;;;;;5011486;28;20208;-65
2023/01/20 11:58:11;;;;;;;14.33;11.50;;;;;;;;;;5011977;28;20208;-64
2023/01/20 12:00:39;;;;;;;15.53;12.77;;;;;;;;;;5011141;28;20224;-64
2023/01/20 12:03:12;;;;;;;14.13;12.00;;;;;;;;;;5010264;28;20212;-64
2023/01/20 12:05:42;;;;;;;13.60;11.10;;;;;;;;;;5012194;28;20239;-64
2023/01/20 12:08:09;;;;;;;13.93;10.83;;;;;;;;;;4993301;28;20288;-64
2023/01/20 12:10:34;;;;;;;14.53;11.03;;;;;;;;;;4994817;28;20223;-64
2023/01/20 12:13:02;;;;;;;13.73;11.33;;;;;;;;;;4994593;28;20208;-65
2023/01/20 12:15:30;;;;;;;13.30;10.80;;;;;;;;;;5011137;28;20727;-64
2023/01/20 12:17:57;;;;;;;13.50;11.23;;;;;;;;;;5014603;28;20241;-64
2023/01/20 12:20:27;;;;;;;14.00;11.03;;;;;;;;;;5015486;28;20220;-64
2023/01/20 12:22:57;;;;;;;13.47;11.53;;;;;;;;;;4997340;28;20569;-64
2023/01/20 12:25:29;;;;;;;13.60;11.33;;;;;;;;;;5015587;28;20200;-64
2023/01/20 12:27:55;;;;;;;12.57;10.60;;;;;;;;;;5015474;28;20701;-65
2023/01/20 12:30:21;;;;;;;12.60;10.40;;;;;;;;;;4996844;28;20560;-64
2023/01/20 12:32:47;;;;;;;12.27;10.10;;;;;;;;;;5015575;28;20224;-64
2023/01/20 12:35:13;;;;;;;12.77;10.57;;;;;;;;;;5015075;28;20217;-64
2023/01/20 12:37:38;;;;;;;12.13;10.57;;;;;;;;;;4994702;28;20269;-65
2023/01/20 12:40:07;;;;;;;13.90;11.53;;;;;;;;;;4998444;28;20232;-64
2023/01/20 12:42:39;;;;;;;12.80;10.40;;;;;;;;;;4995493;28;20208;-64
2023/01/20 12:45:24;;;;;;;11.70;10.03;;;;;;;;;;5014161;28;20247;-64
2023/01/20 12:47:49;;;;;;;12.27;10.30;;;;;;;;;;4998010;28;20224;-64
2023/01/20 12:50:16;;;;;;;12.47;10.53;;;;;;;;;;5011039;28;20209;-64
2023/01/20 12:52:42;;;;;;;13.87;11.10;;;;;;;;;;4995591;28;20221;-64
2023/01/20 12:55:13;;;;;;;10.90;9.27;;;;;;;;;;4995315;28;20224;-64
2023/01/20 12:57:45;;;;;;;11.33;9.63;;;;;;;;;;4994938;28;20224;-64
2023/01/20 13:00:21;;;;;;;12.10;10.13;;;;;;;;;;4995030;28;20264;-64
2023/01/20 13:02:51;;;;;;;13.50;10.70;;;;;;;;;;4978252;28;20618;-65
2023/01/20 13:05:21;;;;;;;11.17;9.93;;;;;;;;;;4994156;28;20239;-64
2023/01/20 13:07:46;;;;;;;12.13;10.83;;;;;;;;;;4995400;28;20260;-64
2023/01/20 13:10:15;;;;;;;12.50;10.80;;;;;;;;;;4994798;28;20646;-64
2023/01/20 13:12:56;;;;;;;11.33;10.03;;;;;;;;;;4977438;28;20593;-64
2023/01/20 13:15:28;;;;;;;11.07;9.73;;;;;;;;;;4994741;28;20236;-64
2023/01/20 13:17:57;;;;;;;10.50;9.40;;;;;;;;;;4978010;28;20240;-64
2023/01/20 13:20:24;;;;;;;10.90;9.67;;;;;;;;;;4994065;28;20211;-64
2023/01/20 13:22:49;;;;;;;10.87;9.57;;;;;;;;;;4978076;28;20217;-65
2023/01/20 13:25:15;;;;;;;11.37;10.17;;;;;;;;;;4993620;28;20236;-64
2023/01/20 13:27:41;;;;;;;11.07;9.60;;;;;;;;;;4995078;28;20222;-64
2023/01/20 13:30:07;;;;;;;11.57;9.50;;;;;;;;;;4993784;28;20303;-64
2023/01/20 13:32:33;;;;;;;10.80;9.40;;;;;;;;;;4994026;28;20208;-64
2023/01/20 13:34:59;;;;;;;10.97;9.23;;;;;;;;;;4994923;28;20746;-65
2023/01/20 13:37:25;;;;;;;12.17;10.40;;;;;;;;;;4995172;28;20300;-64
2023/01/20 13:39:50;;;;;;;12.37;10.80;;;;;;;;;;4993910;28;20209;-65
2023/01/20 13:42:27;;;;;;;12.60;10.87;;;;;;;;;;5009267;28;20292;-64
2023/01/20 13:45:10;;;;;;;13.23;11.47;;;;;;;;;;5014334;28;20224;-64
2023/01/20 13:47:48;;;;;;;12.57;10.93;;;;;;;;;;5013248;28;20224;-64
2023/01/20 13:50:23;;;;;;;12.20;10.20;;;;;;;;;;5010680;28;20283;-64
2023/01/20 13:52:49;;;;;;;11.07;9.67;;;;;;;;;;4994740;28;20216;-64
2023/01/20 13:55:27;;;;;;;12.03;10.73;;;;;;;;;;4993202;28;20295;-64
2023/01/20 13:57:52;;;;;;;11.30;9.40;;;;;;;;;;4977218;28;20247;-64
2023/01/20 14:00:18;;;;;;;10.13;8.80;;;;;;;;;;4993128;28;20225;-64
2023/01/20 14:02:43;;;;;;;11.10;9.47;;;;;;;;;;4994177;28;20217;-64
2023/01/20 14:05:27;;;;;;;10.23;9.03;;;;;;;;;;4993778;28;20232;-64
2023/01/20 14:07:53;;;;;;;9.57;8.27;;;;;;;;;;4993451;28;20225;-64
2023/01/20 14:10:19;;;;;;;9.07;8.17;;;;;;;;;;4993533;28;20702;-64
2023/01/20 14:12:44;;;;;;;9.47;7.77;;;;;;;;;;4994275;28;20356;-64
2023/01/20 14:15:22;;;;;;;9.03;7.53;;;;;;;;;;4992998;28;20303;-64
2023/01/20 14:17:51;;;;;;;8.60;7.63;;;;;;;;;;4992909;28;20692;-65
2023/01/20 14:20:20;;;;;;;8.30;7.40;;;;;;;;;;4993540;28;20217;-64
2023/01/20 14:22:45;;;;;;;9.40;7.60;;;;;;;;;;4992314;28;20221;-64
2023/01/20 14:25:22;;;;;;;8.27;7.40;;;;;;;;;;4993497;28;20299;-64
2023/01/20 14:27:48;;;;;;;9.63;8.00;;;;;;;;;;4992760;28;20247;-64
2023/01/20 14:30:13;;;;;;;9.70;8.20;;;;;;;;;;4992740;28;20597;-64